sensor_id;sensor_type;location;lat;lon;timestamp;pressure;altitude;pressure_sealevel;temperature;humidity
49297;BME280;35163;48.878;18.040;2023-04-05T00:01:33;98794.72;;;0.93;41.67
49297;BME280;35163;48.878;18.040;2023-04-05T00:04:00;98793.91;;;0.94;41.57
49297;BME280;35163;48.878;18.040;2023-04-05T00:06:29;98785.41;;;0.94;41.41
49297;BME280;35163;48.878;18.040;2023-04-05T00:08:57;98789.59;;;0.90;41.11
49297;BME280;35163;48.878;18.040;2023-04-05T00:11:26;98781.91;;;0.86;41.65
49297;BME280;35163;48.878;18.040;2023-04-05T00:13:53;98781.97;;;0.90;41.29
49297;BME280;35163;48.878;18.040;2023-04-05T00:16:19;98780.16;;;0.83;41.84
49297;BME280;35163;48.878;18.040;2023-04-05T00:18:46;98778.41;;;0.79;42.07
49297;BME280;35163;48.878;18.040;2023-04-05T00:21:17;98770.66;;;0.72;41.91
49297;BME280;35163;48.878;18.040;2023-04-05T00:23:52;98769.06;;;0.79;41.94
49297;BME280;35163;48.878;18.040;2023-04-05T00:26:22;98769.19;;;0.87;41.52
49297;BME280;35163;48.878;18.040;2023-04-05T00:28:49;98760.66;;;0.85;41.95
49297;BME280;35163;48.878;18.040;2023-04-05T00:31:17;98769.03;;;0.78;41.43
49297;BME280;35163;48.878;18.040;2023-04-05T00:33:44;98770.84;;;0.85;41.50
49297;BME280;35163;48.878;18.040;2023-04-05T00:36:18;98760.69;;;0.87;42.29
49297;BME280;35163;48.878;18.040;2023-04-05T00:38:46;98768.28;;;0.83;41.78
49297;BME280;35163;48.878;18.040;2023-04-05T00:41:13;98765.63;;;0.76;41.70
49297;BME280;35163;48.878;18.040;2023-04-05T00:43:40;98763.06;;;0.76;41.64
49297;BME280;35163;48.878;18.040;2023-04-05T00:46:07;98766.47;;;0.76;42.21
49297;BME280;35163;48.878;18.040;2023-04-05T00:48:34;98773.19;;;0.69;42.10
49297;BME280;35163;48.878;18.040;2023-04-05T00:51:01;98760.41;;;0.66;42.28
49297;BME280;35163;48.878;18.040;2023-04-05T00:53:28;98762.00;;;0.59;43.20
49297;BME280;35163;48.878;18.040;2023-04-05T00:55:56;98756.03;;;0.57;42.46
49297;BME280;35163;48.878;18.040;2023-04-05T00:58:23;98766.25;;;0.59;42.58
49297;BME280;35163;48.878;18.040;2023-04-05T01:03:19;98770.38;;;0.51;42.29
49297;BME280;35163;48.878;18.040;2023-04-05T01:05:54;98761.97;;;0.55;42.58
49297;BME280;35163;48.878;18.040;2023-04-05T01:08:36;98764.53;;;0.56;42.91
49297;BME280;35163;48.878;18.040;2023-04-05T01:11:05;98760.22;;;0.54;42.27
49297;BME280;35163;48.878;18.040;2023-04-05T01:13:33;98759.41;;;0.53;42.28
49297;BME280;35163;48.878;18.040;2023-04-05T01:16:00;98767.88;;;0.54;42.21
49297;BME280;35163;48.878;18.040;2023-04-05T01:18:26;98763.56;;;0.50;42.40
49297;BME280;35163;48.878;18.040;2023-04-05T01:24:55;98762.00;;;0.58;42.36
49297;BME280;35163;48.878;18.040;2023-04-05T01:27:04;98759.41;;;0.53;42.30
49297;BME280;35163;48.878;18.040;2023-04-05T01:29:49;98752.56;;;0.51;42.30
49297;BME280;35163;48.878;18.040;2023-04-05T01:32:34;98757.59;;;0.47;42.91
49297;BME280;35163;48.878;18.040;2023-04-05T01:35:24;98763.59;;;0.51;42.97
49297;BME280;35163;48.878;18.040;2023-04-05T01:37:59;98757.59;;;0.46;42.85
49297;BME280;35163;48.878;18.040;2023-04-05T01:40:26;98751.53;;;0.39;42.71
49297;BME280;35163;48.878;18.040;2023-04-05T01:42:53;98749.03;;;0.41;43.01
49297;BME280;35163;48.878;18.040;2023-04-05T01:45:20;98746.41;;;0.36;42.50
49297;BME280;35163;48.878;18.040;2023-04-05T01:47:47;98749.78;;;0.35;43.55
49297;BME280;35163;48.878;18.040;2023-04-05T01:50:13;98754.88;;;0.35;43.45
49297;BME280;35163;48.878;18.040;2023-04-05T01:52:40;98751.44;;;0.33;43.26
49297;BME280;35163;48.878;18.040;2023-04-05T01:55:07;98745.44;;;0.29;43.47
49297;BME280;35163;48.878;18.040;2023-04-05T01:57:36;98751.41;;;0.31;43.40
49297;BME280;35163;48.878;18.040;2023-04-05T02:00:04;98759.91;;;0.32;43.80
49297;BME280;35163;48.878;18.040;2023-04-05T02:02:31;98753.94;;;0.30;43.30
49297;BME280;35163;48.878;18.040;2023-04-05T02:04:57;98757.31;;;0.27;43.00
49297;BME280;35163;48.878;18.040;2023-04-05T02:07:24;98764.09;;;0.28;42.87
49297;BME280;35163;48.878;18.040;2023-04-05T02:09:52;98761.53;;;0.27;43.36
49297;BME280;35163;48.878;18.040;2023-04-05T02:12:19;98757.34;;;0.30;43.72
49297;BME280;35163;48.878;18.040;2023-04-05T02:14:45;98755.59;;;0.28;42.53
49297;BME280;35163;48.878;18.040;2023-04-05T02:17:12;98754.72;;;0.24;43.08
49297;BME280;35163;48.878;18.040;2023-04-05T02:19:39;98759.81;;;0.24;42.87
49297;BME280;35163;48.878;18.040;2023-04-05T02:22:12;98761.44;;;0.20;43.54
49297;BME280;35163;48.878;18.040;2023-04-05T02:24:39;98761.41;;;0.19;43.50
49297;BME280;35163;48.878;18.040;2023-04-05T02:27:06;98763.09;;;0.18;42.86
49297;BME280;35163;48.878;18.040;2023-04-05T02:29:33;98759.72;;;0.19;43.57
49297;BME280;35163;48.878;18.040;2023-04-05T02:32:00;98755.41;;;0.15;43.55
49297;BME280;35163;48.878;18.040;2023-04-05T02:34:27;98770.63;;;0.12;43.55
49297;BME280;35163;48.878;18.040;2023-04-05T02:36:54;98760.38;;;0.07;43.96
49297;BME280;35163;48.878;18.040;2023-04-05T02:39:21;98757.81;;;0.06;44.28
49297;BME280;35163;48.878;18.040;2023-04-05T02:41:48;98762.75;;;-0.04;43.97
49297;BME280;35163;48.878;18.040;2023-04-05T02:44:14;98763.50;;;-0.09;43.92
49297;BME280;35163;48.878;18.040;2023-04-05T02:46:41;98755.88;;;-0.08;45.13
49297;BME280;35163;48.878;18.040;2023-04-05T02:49:08;98764.38;;;-0.07;44.00
49297;BME280;35163;48.878;18.040;2023-04-05T02:51:34;98760.09;;;-0.10;44.74
49297;BME280;35163;48.878;18.040;2023-04-05T02:54:02;98760.09;;;-0.08;43.95
49297;BME280;35163;48.878;18.040;2023-04-05T02:56:28;98754.31;;;-0.01;43.62
49297;BME280;35163;48.878;18.040;2023-04-05T02:58:55;98753.50;;;0.00;43.28
49297;BME280;35163;48.878;18.040;2023-04-05T03:01:22;98756.91;;;0.04;43.89
49297;BME280;35163;48.878;18.040;2023-04-05T03:03:49;98759.53;;;0.07;44.07
49297;BME280;35163;48.878;18.040;2023-04-05T03:06:16;98757.66;;;-0.04;43.88
49297;BME280;35163;48.878;18.040;2023-04-05T03:08:43;98756.81;;;-0.03;44.75
49297;BME280;35163;48.878;18.040;2023-04-05T03:11:12;98766.81;;;-0.12;43.82
49297;BME280;35163;48.878;18.040;2023-04-05T03:13:39;98757.25;;;-0.27;44.64
49297;BME280;35163;48.878;18.040;2023-04-05T03:16:06;98764.88;;;-0.27;44.50
49297;BME280;35163;48.878;18.040;2023-04-05T03:18:33;98762.34;;;-0.26;44.90
49297;BME280;35163;48.878;18.040;2023-04-05T03:20:59;98755.75;;;-0.17;44.08
49297;BME280;35163;48.878;18.040;2023-04-05T03:23:30;98760.06;;;-0.11;43.73
49297;BME280;35163;48.878;18.040;2023-04-05T03:28:24;98756.84;;;-0.01;43.73
49297;BME280;35163;48.878;18.040;2023-04-05T03:30:51;98754.06;;;-0.15;43.24
49297;BME280;35163;48.878;18.040;2023-04-05T03:33:18;98750.66;;;-0.17;43.96
49297;BME280;35163;48.878;18.040;2023-04-05T03:35:45;98750.66;;;-0.17;43.76
49297;BME280;35163;48.878;18.040;2023-04-05T03:38:12;98755.81;;;-0.13;43.87
49297;BME280;35163;48.878;18.040;2023-04-05T03:40:39;98754.97;;;-0.11;44.14
49297;BME280;35163;48.878;18.040;2023-04-05T03:43:06;98756.59;;;-0.15;43.07
49297;BME280;35163;48.878;18.040;2023-04-05T03:45:33;98754.03;;;-0.17;43.43
49297;BME280;35163;48.878;18.040;2023-04-05T03:48:00;98757.53;;;-0.10;43.94
49297;BME280;35163;48.878;18.040;2023-04-05T03:50:26;98761.69;;;-0.15;44.02
49297;BME280;35163;48.878;18.040;2023-04-05T03:52:53;98759.13;;;-0.15;43.66
49297;BME280;35163;48.878;18.040;2023-04-05T03:55:20;98757.53;;;-0.10;43.70
49297;BME280;35163;48.878;18.040;2023-04-05T03:57:46;98757.41;;;-0.19;44.42
49297;BME280;35163;48.878;18.040;2023-04-05T04:00:14;98758.16;;;-0.23;44.21
49297;BME280;35163;48.878;18.040;2023-04-05T04:02:47;98764.91;;;-0.24;44.45
49297;BME280;35163;48.878;18.040;2023-04-05T04:05:16;98759.00;;;-0.25;44.09
49297;BME280;35163;48.878;18.040;2023-04-05T04:07:43;98758.16;;;-0.23;44.13
49297;BME280;35163;48.878;18.040;2023-04-05T04:10:12;98759.97;;;-0.16;44.42
49297;BME280;35163;48.878;18.040;2023-04-05T04:12:39;98753.09;;;-0.22;44.09
49297;BME280;35163;48.878;18.040;2023-04-05T04:15:06;98757.34;;;-0.22;44.70
49297;BME280;35163;48.878;18.040;2023-04-05T04:17:35;98756.38;;;-0.29;45.00
49297;BME280;35163;48.878;18.040;2023-04-05T04:20:03;98753.91;;;-0.25;44.89
49297;BME280;35163;48.878;18.040;2023-04-05T04:22:37;98764.75;;;-0.33;44.91
49297;BME280;35163;48.878;18.040;2023-04-05T04:25:07;98763.06;;;-0.34;44.99
49297;BME280;35163;48.878;18.040;2023-04-05T04:27:40;98759.81;;;-0.26;45.21
49297;BME280;35163;48.878;18.040;2023-04-05T04:30:12;98761.56;;;-0.23;44.82
49297;BME280;35163;48.878;18.040;2023-04-05T04:32:41;98753.72;;;-0.34;45.04
49297;BME280;35163;48.878;18.040;2023-04-05T04:37:58;98755.28;;;-0.42;45.21
49297;BME280;35163;48.878;18.040;2023-04-05T04:40:29;98755.34;;;-0.39;45.00
49297;BME280;35163;48.878;18.040;2023-04-05T04:43:12;98758.81;;;-0.34;45.31
49297;BME280;35163;48.878;18.040;2023-04-05T04:45:52;98765.44;;;-0.42;46.02
49297;BME280;35163;48.878;18.040;2023-04-05T04:48:20;98765.34;;;-0.48;45.31
49297;BME280;35163;48.878;18.040;2023-04-05T04:50:47;98763.75;;;-0.43;45.25
49297;BME280;35163;48.878;18.040;2023-04-05T04:53:15;98760.31;;;-0.45;45.78
49297;BME280;35163;48.878;18.040;2023-04-05T04:55:50;98759.31;;;-0.54;45.74
49297;BME280;35163;48.878;18.040;2023-04-05T04:58:16;98754.34;;;-0.47;46.96
49297;BME280;35163;48.878;18.040;2023-04-05T05:00:44;98754.34;;;-0.47;46.27
49297;BME280;35163;48.878;18.040;2023-04-05T05:03:12;98761.03;;;-0.53;46.51
49297;BME280;35163;48.878;18.040;2023-04-05T05:05:43;98758.63;;;-0.46;46.57
49297;BME280;35163;48.878;18.040;2023-04-05T05:08:10;98759.53;;;-0.41;46.75
49297;BME280;35163;48.878;18.040;2023-04-05T05:10:37;98763.63;;;-0.50;47.01
49297;BME280;35163;48.878;18.040;2023-04-05T05:13:04;98766.19;;;-0.48;46.89
49297;BME280;35163;48.878;18.040;2023-04-05T05:15:31;98759.41;;;-0.49;46.47
49297;BME280;35163;48.878;18.040;2023-04-05T05:17:58;98770.44;;;-0.47;46.38
49297;BME280;35163;48.878;18.040;2023-04-05T05:20:31;98764.47;;;-0.49;46.63
49297;BME280;35163;48.878;18.040;2023-04-05T05:22:57;98771.34;;;-0.45;46.75
49297;BME280;35163;48.878;18.040;2023-04-05T05:25:26;98778.94;;;-0.46;46.89
49297;BME280;35163;48.878;18.040;2023-04-05T05:27:53;98772.13;;;-0.47;47.60
49297;BME280;35163;48.878;18.040;2023-04-05T05:30:19;98775.63;;;-0.41;46.74
49297;BME280;35163;48.878;18.040;2023-04-05T05:32:47;98775.81;;;-0.33;46.60
49297;BME280;35163;48.878;18.040;2023-04-05T05:35:13;98770.63;;;-0.36;46.43
49297;BME280;35163;48.878;18.040;2023-04-05T05:37:40;98772.41;;;-0.32;46.30
49297;BME280;35163;48.878;18.040;2023-04-05T05:40:07;98769.91;;;-0.30;46.20
49297;BME280;35163;48.878;18.040;2023-04-05T05:42:35;98774.97;;;-0.30;46.80
49297;BME280;35163;48.878;18.040;2023-04-05T05:45:03;98772.50;;;-0.27;46.67
49297;BME280;35163;48.878;18.040;2023-04-05T05:47:31;98778.38;;;-0.31;45.98
49297;BME280;35163;48.878;18.040;2023-04-05T05:49:57;98780.16;;;-0.24;45.58
49297;BME280;35163;48.878;18.040;2023-04-05T05:52:27;98786.97;;;-0.23;46.09
49297;BME280;35163;48.878;18.040;2023-04-05T05:54:54;98789.66;;;-0.15;46.35
49297;BME280;35163;48.878;18.040;2023-04-05T05:57:21;98799.97;;;-0.07;45.85
49297;BME280;35163;48.878;18.040;2023-04-05T05:59:48;98798.22;;;-0.10;45.62
49297;BME280;35163;48.878;18.040;2023-04-05T06:02:15;98794.09;;;-0.03;45.77
49297;BME280;35163;48.878;18.040;2023-04-05T06:04:42;98793.09;;;-0.11;46.05
49297;BME280;35163;48.878;18.040;2023-04-05T06:07:09;98791.44;;;-0.09;46.37
49297;BME280;35163;48.878;18.040;2023-04-05T06:09:39;98793.94;;;-0.13;46.52
49297;BME280;35163;48.878;18.040;2023-04-05T06:12:05;98789.66;;;-0.15;46.16
49297;BME280;35163;48.878;18.040;2023-04-05T06:14:35;98788.78;;;-0.17;46.02
49297;BME280;35163;48.878;18.040;2023-04-05T06:17:02;98783.78;;;-0.13;46.46
49297;BME280;35163;48.878;18.040;2023-04-05T06:19:28;98776.22;;;-0.08;45.68
49297;BME280;35163;48.878;18.040;2023-04-05T06:21:55;98774.03;;;0.14;45.78
49297;BME280;35163;48.878;18.040;2023-04-05T06:24:22;98774.22;;;0.25;45.77
49297;BME280;35163;48.878;18.040;2023-04-05T06:26:49;98780.50;;;0.47;44.70
49297;BME280;35163;48.878;18.040;2023-04-05T06:29:17;98779.81;;;0.58;45.05
49297;BME280;35163;48.878;18.040;2023-04-05T06:31:43;98772.50;;;0.81;44.29
49297;BME280;35163;48.878;18.040;2023-04-05T06:34:11;98768.56;;;1.05;44.10
49297;BME280;35163;48.878;18.040;2023-04-05T06:36:38;98767.97;;;1.25;43.66
49297;BME280;35163;48.878;18.040;2023-04-05T06:39:05;98772.44;;;1.47;43.01
49297;BME280;35163;48.878;18.040;2023-04-05T06:41:32;98770.94;;;1.66;43.24
49297;BME280;35163;48.878;18.040;2023-04-05T06:43:59;98771.13;;;1.83;41.59
49297;BME280;35163;48.878;18.040;2023-04-05T06:46:27;98784.03;;;2.02;42.43
49297;BME280;35163;48.878;18.040;2023-04-05T06:48:54;98777.28;;;2.04;42.29
49297;BME280;35163;48.878;18.040;2023-04-05T06:51:21;98782.38;;;2.07;41.71
49297;BME280;35163;48.878;18.040;2023-04-05T06:53:47;98780.63;;;2.01;41.09
49297;BME280;35163;48.878;18.040;2023-04-05T06:56:14;98779.06;;;2.14;40.94
49297;BME280;35163;48.878;18.040;2023-04-05T06:58:41;98773.13;;;2.20;41.01
49297;BME280;35163;48.878;18.040;2023-04-05T07:01:07;98787.69;;;2.34;40.50
49297;BME280;35163;48.878;18.040;2023-04-05T07:03:34;98781.88;;;2.49;40.95
49297;BME280;35163;48.878;18.040;2023-04-05T07:06:01;98787.88;;;2.54;39.90
49297;BME280;35163;48.878;18.040;2023-04-05T07:08:31;98778.59;;;2.67;40.19
49297;BME280;35163;48.878;18.040;2023-04-05T07:10:58;98783.88;;;2.97;39.91
49297;BME280;35163;48.878;18.040;2023-04-05T07:13:25;98788.22;;;3.16;39.06
49297;BME280;35163;48.878;18.040;2023-04-05T07:15:58;98786.53;;;3.23;38.41
49297;BME280;35163;48.878;18.040;2023-04-05T07:18:26;98786.59;;;3.37;39.04
49297;BME280;35163;48.878;18.040;2023-04-05T07:20:55;98783.22;;;3.42;38.36
49297;BME280;35163;48.878;18.040;2023-04-05T07:23:25;98785.78;;;3.51;38.04
49297;BME280;35163;48.878;18.040;2023-04-05T07:26:00;98788.34;;;3.57;38.36
49297;BME280;35163;48.878;18.040;2023-04-05T07:28:31;98794.38;;;3.73;38.22
49297;BME280;35163;48.878;18.040;2023-04-05T07:30:58;98792.69;;;3.80;37.25
49297;BME280;35163;48.878;18.040;2023-04-05T07:33:25;98782.47;;;3.93;37.22
49297;BME280;35163;48.878;18.040;2023-04-05T07:35:56;98782.47;;;4.02;37.09
49297;BME280;35163;48.878;18.040;2023-04-05T07:38:23;98770.56;;;3.93;37.14
49297;BME280;35163;48.878;18.040;2023-04-05T07:40:50;98775.69;;;4.12;37.38
49297;BME280;35163;48.878;18.040;2023-04-05T07:43:18;98764.59;;;4.15;36.92
49297;BME280;35163;48.878;18.040;2023-04-05T07:45:44;98779.09;;;4.09;36.80
49297;BME280;35163;48.878;18.040;2023-04-05T07:48:11;98773.13;;;4.17;35.85
49297;BME280;35163;48.878;18.040;2023-04-05T07:50:38;98762.00;;;4.19;36.02
49297;BME280;35163;48.878;18.040;2023-04-05T07:53:06;98771.41;;;4.37;36.50
49297;BME280;35163;48.878;18.040;2023-04-05T07:55:36;98767.13;;;4.22;35.27
49297;BME280;35163;48.878;18.040;2023-04-05T07:58:03;98771.41;;;4.22;35.50
49297;BME280;35163;48.878;18.040;2023-04-05T08:00:29;98775.66;;;4.10;35.54
49297;BME280;35163;48.878;18.040;2023-04-05T08:02:56;98768.84;;;4.03;36.23
49297;BME280;35163;48.878;18.040;2023-04-05T08:05:27;98755.19;;;3.98;35.56
49297;BME280;35163;48.878;18.040;2023-04-05T08:07:54;98773.97;;;4.14;35.56
49297;BME280;35163;48.878;18.040;2023-04-05T08:10:24;98766.28;;;4.09;35.87
49297;BME280;35163;48.878;18.040;2023-04-05T08:12:51;98761.19;;;4.00;35.98
49297;BME280;35163;48.878;18.040;2023-04-05T08:15:18;98762.00;;;3.97;35.93
49297;BME280;35163;48.878;18.040;2023-04-05T08:17:45;98768.81;;;3.92;36.28
49297;BME280;35163;48.878;18.040;2023-04-05T08:20:11;98765.44;;;3.96;36.10
49297;BME280;35163;48.878;18.040;2023-04-05T08:22:38;98764.56;;;3.91;36.07
49297;BME280;35163;48.878;18.040;2023-04-05T08:25:05;98750.06;;;3.92;36.06
49297;BME280;35163;48.878;18.040;2023-04-05T08:27:32;98752.63;;;4.01;36.19
49297;BME280;35163;48.878;18.040;2023-04-05T08:29:58;98745.81;;;3.94;36.37
49297;BME280;35163;48.878;18.040;2023-04-05T08:32:25;98743.25;;;4.08;35.89
49297;BME280;35163;48.878;18.040;2023-04-05T08:34:52;98740.69;;;4.08;36.45
49297;BME280;35163;48.878;18.040;2023-04-05T08:37:18;98738.13;;;4.28;36.66
49297;BME280;35163;48.878;18.040;2023-04-05T08:39:45;98744.94;;;4.35;36.41
49297;BME280;35163;48.878;18.040;2023-04-05T08:42:17;98741.53;;;4.35;36.19
49297;BME280;35163;48.878;18.040;2023-04-05T08:44:44;98724.47;;;4.34;35.64
49297;BME280;35163;48.878;18.040;2023-04-05T08:47:17;98731.28;;;4.36;35.66
49297;BME280;35163;48.878;18.040;2023-04-05T08:49:44;98732.16;;;4.32;35.12
49297;BME280;35163;48.878;18.040;2023-04-05T08:52:11;98725.34;;;4.34;35.79
49297;BME280;35163;48.878;18.040;2023-04-05T08:54:38;98722.78;;;4.37;35.35
49297;BME280;35163;48.878;18.040;2023-04-05T08:57:06;98718.50;;;4.35;35.60
49297;BME280;35163;48.878;18.040;2023-04-05T08:59:36;98713.38;;;4.35;35.73
49297;BME280;35163;48.878;18.040;2023-04-05T09:02:07;98725.31;;;4.45;35.55
49297;BME280;35163;48.878;18.040;2023-04-05T09:04:42;98720.16;;;4.50;36.00
49297;BME280;35163;48.878;18.040;2023-04-05T09:07:12;98712.50;;;4.47;35.33
49297;BME280;35163;48.878;18.040;2023-04-05T09:09:45;98712.50;;;4.56;35.70
49297;BME280;35163;48.878;18.040;2023-04-05T09:12:13;98712.47;;;4.58;35.90
49297;BME280;35163;48.878;18.040;2023-04-05T09:14:40;98697.06;;;4.67;35.46
49297;BME280;35163;48.878;18.040;2023-04-05T09:17:07;98702.19;;;4.67;35.72
49297;BME280;35163;48.878;18.040;2023-04-05T09:19:34;98702.19;;;4.78;35.40
49297;BME280;35163;48.878;18.040;2023-04-05T09:22:02;98695.31;;;4.83;35.69
49297;BME280;35163;48.878;18.040;2023-04-05T09:24:47;98702.13;;;4.92;35.50
49297;BME280;35163;48.878;18.040;2023-04-05T09:27:16;98696.97;;;4.98;35.39
49297;BME280;35163;48.878;18.040;2023-04-05T09:29:44;98697.03;;;4.83;35.02
49297;BME280;35163;48.878;18.040;2023-04-05T09:32:12;98697.03;;;4.81;35.26
49297;BME280;35163;48.878;18.040;2023-04-05T09:34:40;98699.56;;;4.84;35.79
49297;BME280;35163;48.878;18.040;2023-04-05T09:39:42;98672.25;;;4.83;35.64
49297;BME280;35163;48.878;18.040;2023-04-05T09:42:13;98676.44;;;5.02;35.44
49297;BME280;35163;48.878;18.040;2023-04-05T09:44:56;98677.28;;;5.05;35.21
49297;BME280;35163;48.878;18.040;2023-04-05T09:47:25;98679.81;;;5.16;35.14
49297;BME280;35163;48.878;18.040;2023-04-05T09:50:00;98680.66;;;5.18;35.54
49297;BME280;35163;48.878;18.040;2023-04-05T09:52:28;98677.22;;;5.18;33.69
49297;BME280;35163;48.878;18.040;2023-04-05T09:55:04;98667.81;;;5.23;34.00
49297;BME280;35163;48.878;18.040;2023-04-05T09:57:33;98672.94;;;5.23;34.25
49297;BME280;35163;48.878;18.040;2023-04-05T10:00:00;98672.97;;;5.20;33.77
49297;BME280;35163;48.878;18.040;2023-04-05T10:02:38;98672.06;;;5.22;33.46
49297;BME280;35163;48.878;18.040;2023-04-05T10:05:10;98664.38;;;5.21;33.62
49297;BME280;35163;48.878;18.040;2023-04-05T10:07:39;98656.66;;;5.27;33.00
49297;BME280;35163;48.878;18.040;2023-04-05T10:10:08;98648.94;;;5.33;33.12
49297;BME280;35163;48.878;18.040;2023-04-05T10:12:37;98660.81;;;5.47;33.52
49297;BME280;35163;48.878;18.040;2023-04-05T10:15:05;98653.13;;;5.47;32.89
49297;BME280;35163;48.878;18.040;2023-04-05T10:17:46;98645.38;;;5.53;32.67
49297;BME280;35163;48.878;18.040;2023-04-05T10:20:21;98650.53;;;5.52;32.93
49297;BME280;35163;48.878;18.040;2023-04-05T10:23:07;98644.53;;;5.51;32.91
49297;BME280;35163;48.878;18.040;2023-04-05T10:28:29;98636.88;;;5.48;33.27
49297;BME280;35163;48.878;18.040;2023-04-05T10:41:41;98621.28;;;5.75;32.08
49297;BME280;35163;48.878;18.040;2023-04-05T10:44:16;98618.59;;;5.86;32.51
49297;BME280;35163;48.878;18.040;2023-04-05T10:46:53;98610.78;;;5.98;32.92
49297;BME280;35163;48.878;18.040;2023-04-05T10:49:38;98620.13;;;6.08;32.10
49297;BME280;35163;48.878;18.040;2023-04-05T10:52:08;98626.16;;;6.07;32.43
49297;BME280;35163;48.878;18.040;2023-04-05T10:54:35;98607.38;;;5.96;31.32
49297;BME280;35163;48.878;18.040;2023-04-05T10:57:07;98610.72;;;6.04;31.67
49297;BME280;35163;48.878;18.040;2023-04-05T10:59:40;98616.72;;;6.03;31.37
49297;BME280;35163;48.878;18.040;2023-04-05T11:02:10;98617.56;;;6.08;30.95
49297;BME280;35163;48.878;18.040;2023-04-05T11:04:38;98607.28;;;6.12;30.74
49297;BME280;35163;48.878;18.040;2023-04-05T11:07:15;98608.06;;;6.17;31.10
49297;BME280;35163;48.878;18.040;2023-04-05T11:09:55;98607.19;;;6.21;31.14
49297;BME280;35163;48.878;18.040;2023-04-05T11:15:29;98609.41;;;6.52;31.49
49297;BME280;35163;48.878;18.040;2023-04-05T11:20:44;98612.78;;;6.58;30.84
49297;BME280;35163;48.878;18.040;2023-04-05T11:23:19;98607.50;;;6.67;31.08
49297;BME280;35163;48.878;18.040;2023-04-05T11:25:55;98609.13;;;6.74;30.55
49297;BME280;35163;48.878;18.040;2023-04-05T11:28:35;98604.84;;;6.73;30.99
49297;BME280;35163;48.878;18.040;2023-04-05T11:31:25;98603.81;;;6.88;30.52
49297;BME280;35163;48.878;18.040;2023-04-05T11:33:56;98593.38;;;6.99;30.35
49297;BME280;35163;48.878;18.040;2023-04-05T11:36:43;98589.91;;;7.03;30.40
49297;BME280;35163;48.878;18.040;2023-04-05T11:44:46;98591.47;;;7.14;29.67
49297;BME280;35163;48.878;18.040;2023-04-05T11:47:17;98590.47;;;7.24;30.39
49297;BME280;35163;48.878;18.040;2023-04-05T11:49:52;98597.19;;;7.32;30.39
49297;BME280;35163;48.878;18.040;2023-04-05T11:52:20;98588.59;;;7.34;30.74
49297;BME280;35163;48.878;18.040;2023-04-05T11:54:47;98586.88;;;7.35;30.05
49297;BME280;35163;48.878;18.040;2023-04-05T11:57:19;98576.53;;;7.38;30.52
49297;BME280;35163;48.878;18.040;2023-04-05T11:59:48;98579.84;;;7.45;30.72
49297;BME280;35163;48.878;18.040;2023-04-05T12:02:16;98578.13;;;7.47;30.46
49297;BME280;35163;48.878;18.040;2023-04-05T12:04:43;98573.69;;;7.55;30.43
49297;BME280;35163;48.878;18.040;2023-04-05T12:07:18;98576.16;;;7.61;30.05
49297;BME280;35163;48.878;18.040;2023-04-05T12:10:03;98579.53;;;7.65;30.35
49297;BME280;35163;48.878;18.040;2023-04-05T12:12:35;98570.25;;;7.54;29.52
49297;BME280;35163;48.878;18.040;2023-04-05T12:15:05;98564.28;;;7.52;29.71
49297;BME280;35163;48.878;18.040;2023-04-05T12:17:47;98572.88;;;7.53;29.97
49297;BME280;35163;48.878;18.040;2023-04-05T12:20:18;98572.75;;;7.59;29.60
49297;BME280;35163;48.878;18.040;2023-04-05T12:22:47;98566.75;;;7.60;29.74
49297;BME280;35163;48.878;18.040;2023-04-05T12:25:15;98564.97;;;7.64;30.14
49297;BME280;35163;48.878;18.040;2023-04-05T12:27:42;98558.78;;;7.73;30.07
49297;BME280;35163;48.878;18.040;2023-04-05T12:30:17;98561.19;;;7.84;30.08
49297;BME280;35163;48.878;18.040;2023-04-05T12:32:52;98561.06;;;7.90;29.92
49297;BME280;35163;48.878;18.040;2023-04-05T12:35:27;98561.25;;;7.81;29.53
49297;BME280;35163;48.878;18.040;2023-04-05T12:37:58;98563.00;;;7.78;29.74
49297;BME280;35163;48.878;18.040;2023-04-05T12:40:29;98559.44;;;7.86;29.60
49297;BME280;35163;48.878;18.040;2023-04-05T12:45:29;98556.91;;;7.84;29.56
49297;BME280;35163;48.878;18.040;2023-04-05T12:48:11;98555.00;;;7.94;29.67
49297;BME280;35163;48.878;18.040;2023-04-05T12:50:43;98551.56;;;7.94;29.42
49297;BME280;35163;48.878;18.040;2023-04-05T12:53:18;98552.25;;;8.02;29.38
49297;BME280;35163;48.878;18.040;2023-04-05T12:55:49;98553.09;;;8.04;29.86
49297;BME280;35163;48.878;18.040;2023-04-05T12:58:18;98542.69;;;8.10;29.24
49297;BME280;35163;48.878;18.040;2023-04-05T13:00:45;98548.72;;;8.08;29.07
49297;BME280;35163;48.878;18.040;2023-04-05T13:03:19;98559.84;;;8.10;28.67
49297;BME280;35163;48.878;18.040;2023-04-05T13:05:49;98555.41;;;8.18;29.50
49297;BME280;35163;48.878;18.040;2023-04-05T13:08:17;98556.19;;;8.22;29.34
49297;BME280;35163;48.878;18.040;2023-04-05T13:10:45;98542.34;;;8.27;29.21
49297;BME280;35163;48.878;18.040;2023-04-05T13:13:16;98544.88;;;8.31;28.33
49297;BME280;35163;48.878;18.040;2023-04-05T13:15:43;98548.19;;;8.36;28.46
49297;BME280;35163;48.878;18.040;2023-04-05T13:18:11;98554.91;;;8.43;28.65
49297;BME280;35163;48.878;18.040;2023-04-05T13:20:46;98549.81;;;8.40;28.40
49297;BME280;35163;48.878;18.040;2023-04-05T13:23:13;98550.00;;;8.31;28.58
49297;BME280;35163;48.878;18.040;2023-04-05T13:25:42;98546.66;;;8.27;28.62
49297;BME280;35163;48.878;18.040;2023-04-05T13:28:10;98544.88;;;8.31;28.64
49297;BME280;35163;48.878;18.040;2023-04-05T13:30:37;98540.44;;;8.37;28.71
49297;BME280;35163;48.878;18.040;2023-04-05T13:33:04;98547.25;;;8.40;28.31
49297;BME280;35163;48.878;18.040;2023-04-05T13:35:31;98536.09;;;8.38;28.28
49297;BME280;35163;48.878;18.040;2023-04-05T13:37:58;98539.56;;;8.37;28.15
49297;BME280;35163;48.878;18.040;2023-04-05T13:40:29;98543.00;;;8.37;28.29
49297;BME280;35163;48.878;18.040;2023-04-05T13:42:57;98547.31;;;8.37;28.53
49297;BME280;35163;48.878;18.040;2023-04-05T13:45:24;98538.16;;;8.22;28.56
49297;BME280;35163;48.878;18.040;2023-04-05T13:47:51;98532.84;;;8.30;28.67
49297;BME280;35163;48.878;18.040;2023-04-05T13:50:17;98530.09;;;8.39;28.62